createdAt,value
2023-05-15T00:02:08.834Z,12.87
2023-05-15T00:07:11.219Z,12.91
2023-05-15T00:12:12.941Z,12.92
2023-05-15T00:17:14.806Z,12.82
2023-05-15T00:22:16.463Z,12.71
2023-05-15T00:27:18.410Z,12.71
2023-05-15T00:32:20.324Z,12.78
2023-05-15T00:37:23.618Z,12.81
2023-05-15T00:42:26.512Z,12.75
2023-05-15T00:47:29.110Z,12.73
2023-05-15T00:52:31.375Z,12.69
2023-05-15T00:57:34.374Z,12.68
2023-05-15T01:02:37.489Z,12.57
2023-05-15T01:07:49.523Z,12.47
2023-05-15T01:12:54.503Z,12.50
2023-05-15T01:17:56.616Z,12.26
2023-05-15T01:23:15.883Z,12.26
2023-05-15T01:28:24.221Z,12.42
2023-05-15T01:33:41.105Z,12.55
2023-05-15T01:39:04.058Z,12.62
2023-05-15T01:44:11.670Z,12.68
2023-05-15T01:49:16.623Z,12.71
2023-05-15T01:54:21.562Z,12.73
2023-05-15T01:59:24.720Z,12.73
2023-05-15T02:04:26.789Z,12.69
2023-05-15T02:09:29.203Z,12.64
2023-05-15T02:14:31.805Z,12.66
2023-05-15T02:19:33.616Z,12.73
2023-05-15T02:24:37.784Z,12.68
2023-05-15T02:30:06.572Z,12.69
2023-05-15T02:35:19.443Z,12.66
2023-05-15T02:40:25.065Z,12.68
2023-05-15T02:51:03.965Z,12.66
2023-05-15T02:56:06.524Z,12.62
2023-05-15T03:01:08.478Z,12.64
2023-05-15T03:06:10.470Z,12.66
2023-05-15T03:11:12.168Z,12.67
2023-05-15T03:16:13.909Z,12.69
2023-05-15T03:21:15.811Z,12.71
2023-05-15T03:26:17.684Z,12.70
2023-05-15T03:31:19.563Z,12.73
2023-05-15T03:36:22.647Z,12.72
2023-05-15T03:41:26.194Z,12.73
2023-05-15T03:46:28.063Z,12.75
2023-05-15T03:51:29.950Z,12.76
2023-05-15T03:56:33.070Z,12.76
2023-05-15T04:01:44.092Z,12.79
2023-05-15T04:06:53.098Z,12.78
2023-05-15T04:11:54.839Z,12.74
2023-05-15T04:16:56.820Z,12.79
2023-05-15T04:21:58.563Z,12.78
2023-05-15T04:27:00.289Z,12.80
2023-05-15T04:32:02.451Z,12.67
2023-05-15T04:37:04.907Z,12.65
2023-05-15T04:42:07.010Z,12.60
2023-05-15T04:47:08.643Z,12.64
2023-05-15T04:52:10.585Z,12.71
2023-05-15T04:57:12.219Z,12.83
2023-05-15T05:02:13.841Z,13.17
2023-05-15T05:07:15.876Z,13.14
2023-05-15T05:12:17.597Z,13.15
2023-05-15T05:17:19.402Z,13.11
2023-05-15T05:22:21.236Z,13.10
2023-05-15T05:27:23.068Z,13.03
2023-05-15T05:32:24.918Z,12.89
2023-05-15T05:37:26.694Z,12.98
2023-05-15T05:42:28.544Z,12.76
2023-05-15T05:47:30.275Z,12.68
2023-05-15T05:52:31.922Z,12.61
2023-05-15T05:57:33.746Z,12.59
2023-05-15T06:02:36.377Z,12.55
2023-05-15T06:07:38.456Z,12.65
2023-05-15T06:12:40.075Z,12.62
2023-05-15T06:17:41.870Z,12.77
2023-05-15T06:22:43.697Z,12.88
2023-05-15T06:27:45.380Z,13.07
2023-05-15T06:32:47.054Z,13.36
2023-05-15T06:37:50.325Z,13.38
2023-05-15T06:42:51.926Z,13.42
2023-05-15T06:47:53.675Z,13.47
2023-05-15T06:52:55.525Z,13.59
2023-05-15T06:57:57.215Z,13.49
2023-05-15T07:02:58.902Z,13.45
2023-05-15T07:08:00.817Z,13.40
2023-05-15T07:13:02.440Z,13.49
2023-05-15T07:18:04.201Z,13.55
2023-05-15T07:23:05.925Z,13.68
2023-05-15T07:28:07.532Z,13.70
2023-05-15T07:33:09.306Z,13.80
2023-05-15T07:38:11.712Z,13.86
2023-05-15T07:43:13.505Z,14.13
2023-05-15T07:48:20.003Z,14.46
2023-05-15T07:53:21.870Z,14.48
2023-05-15T07:58:23.728Z,14.44
2023-05-15T08:03:25.516Z,14.71
2023-05-15T08:08:27.248Z,14.94
2023-05-15T08:13:28.910Z,14.96
2023-05-15T08:18:30.625Z,15.11
2023-05-15T08:23:32.326Z,15.32
2023-05-15T08:28:33.948Z,15.96
2023-05-15T08:33:35.498Z,16.23
2023-05-15T08:38:37.139Z,16.10
2023-05-15T08:43:41.392Z,15.64
2023-05-15T08:48:43.779Z,16.22
2023-05-15T08:53:46.773Z,16.37
2023-05-15T08:58:48.949Z,16.59
2023-05-15T09:03:50.683Z,16.94
2023-05-15T09:08:57.000Z,16.84
2023-05-15T09:13:59.796Z,16.96
2023-05-15T09:19:02.507Z,17.53
2023-05-15T09:24:24.582Z,18.17
2023-05-15T09:29:28.047Z,18.55
2023-05-15T09:34:34.505Z,19.01
2023-05-15T09:39:43.625Z,18.60
2023-05-15T09:44:46.366Z,18.31
2023-05-15T09:49:48.039Z,18.36
2023-05-15T09:54:50.672Z,18.50
2023-05-15T09:59:52.636Z,19.57
2023-05-15T10:04:56.884Z,19.97
2023-05-15T10:09:59.622Z,20.65
2023-05-15T10:15:02.868Z,20.00
2023-05-15T10:20:07.103Z,19.95
2023-05-15T10:25:36.266Z,19.95
2023-05-15T10:30:39.067Z,20.34
2023-05-15T10:35:42.689Z,20.52
2023-05-15T10:40:45.711Z,20.66
2023-05-15T10:45:48.152Z,20.85
2023-05-15T10:50:51.015Z,21.29
2023-05-15T10:55:52.893Z,21.67
2023-05-15T11:00:54.713Z,22.05
2023-05-15T11:06:10.087Z,22.14
2023-05-15T11:11:49.178Z,22.12
2023-05-15T11:16:54.064Z,22.48
2023-05-15T11:22:06.595Z,21.89
2023-05-15T11:27:13.205Z,21.75
2023-05-15T11:32:42.875Z,21.49
2023-05-15T11:37:52.101Z,21.29
2023-05-15T11:42:59.029Z,21.62
2023-05-15T11:48:05.264Z,22.14
2023-05-15T11:53:09.187Z,21.43
2023-05-15T11:58:13.669Z,21.28
2023-05-15T12:03:27.432Z,21.88
2023-05-15T12:08:37.470Z,21.15
2023-05-15T12:13:39.163Z,21.22
2023-05-15T12:18:40.894Z,21.33
2023-05-15T12:24:03.333Z,21.63
2023-05-15T12:29:08.613Z,21.44
2023-05-15T12:34:10.811Z,21.71
2023-05-15T12:39:12.868Z,21.69
2023-05-15T12:44:17.982Z,21.29
2023-05-15T12:49:22.987Z,20.98
2023-05-15T12:54:24.826Z,21.08
2023-05-15T12:59:26.488Z,21.13
2023-05-15T13:04:28.301Z,21.20
2023-05-15T13:09:30.580Z,21.33
2023-05-15T13:14:33.167Z,21.07
2023-05-15T13:19:34.882Z,20.97
2023-05-15T13:24:36.555Z,20.94
2023-05-15T13:29:38.163Z,20.68
2023-05-15T13:34:39.844Z,20.47
2023-05-15T13:39:41.641Z,20.13
2023-05-15T13:44:43.515Z,19.90
2023-05-15T13:49:46.267Z,20.04
2023-05-15T13:54:48.090Z,20.09
2023-05-15T13:59:49.972Z,19.86
2023-05-15T14:04:53.225Z,19.76
2023-05-15T14:09:54.894Z,19.66
2023-05-15T14:14:57.794Z,19.67
2023-05-15T14:19:59.745Z,19.83
2023-05-15T14:25:03.557Z,19.86
2023-05-15T14:30:05.859Z,19.48
2023-05-15T14:35:07.820Z,19.46
2023-05-15T14:40:10.118Z,19.63
2023-05-15T14:45:11.864Z,19.70
2023-05-15T14:50:13.606Z,19.65
2023-05-15T14:55:15.910Z,19.57
2023-05-15T15:00:18.212Z,19.99
2023-05-15T15:05:20.398Z,20.01
2023-05-15T15:10:22.323Z,19.71
2023-05-15T15:15:24.627Z,19.49
2023-05-15T15:20:27.356Z,19.67
2023-05-15T15:25:30.830Z,20.16
2023-05-15T15:30:34.376Z,20.52
2023-05-15T15:35:36.033Z,20.32
2023-05-15T15:40:37.676Z,20.41
2023-05-15T15:45:39.409Z,20.52
2023-05-15T15:50:41.079Z,20.48
2023-05-15T15:55:43.481Z,20.61
2023-05-15T16:00:46.563Z,20.64
2023-05-15T16:05:48.271Z,20.37
2023-05-15T16:10:49.931Z,20.35
2023-05-15T16:15:51.568Z,20.31
2023-05-15T16:20:53.242Z,20.04
2023-05-15T16:25:54.827Z,19.90
2023-05-15T16:30:56.936Z,19.74
2023-05-15T16:35:58.584Z,19.75
2023-05-15T16:41:00.654Z,19.68
2023-05-15T16:46:02.611Z,19.51
2023-05-15T16:51:04.912Z,19.47
2023-05-15T16:56:06.898Z,19.45
2023-05-15T17:01:08.878Z,19.52
2023-05-15T17:06:10.571Z,19.58
2023-05-15T17:11:13.418Z,19.47
2023-05-15T17:16:15.211Z,19.38
2023-05-15T17:21:16.910Z,19.28
2023-05-15T17:26:18.554Z,19.15
2023-05-15T17:31:21.222Z,19.07
2023-05-15T17:36:22.924Z,18.82
2023-05-15T17:41:24.568Z,18.65
2023-05-15T17:46:26.695Z,18.56
2023-05-15T17:51:28.382Z,18.49
2023-05-15T17:56:30.792Z,18.46
2023-05-15T18:01:32.599Z,18.40
2023-05-15T18:06:34.491Z,18.35
2023-05-15T18:11:36.257Z,18.18
2023-05-15T18:16:38.392Z,18.08
2023-05-15T18:21:40.053Z,17.93
2023-05-15T18:26:41.746Z,17.76
2023-05-15T18:31:43.564Z,17.58
2023-05-15T18:36:45.531Z,17.48
2023-05-15T18:41:47.181Z,17.35
2023-05-15T18:46:52.282Z,17.14
2023-05-15T18:51:53.907Z,17.03
2023-05-15T18:56:55.716Z,16.90
2023-05-15T19:01:57.397Z,16.74
2023-05-15T19:06:59.024Z,16.56
2023-05-15T19:12:00.753Z,16.48
2023-05-15T19:17:02.501Z,16.37
2023-05-15T19:22:04.233Z,16.24
2023-05-15T19:27:06.057Z,16.11
2023-05-15T19:32:08.521Z,15.96
2023-05-15T19:37:10.659Z,15.80
2023-05-15T19:42:12.298Z,15.64
2023-05-15T19:47:13.949Z,15.53
2023-05-15T19:52:16.338Z,15.39
2023-05-15T19:57:18.172Z,15.29
2023-05-15T20:02:21.144Z,15.21
2023-05-15T20:07:22.793Z,15.11
2023-05-15T20:12:24.469Z,14.96
2023-05-15T20:17:27.104Z,14.90
2023-05-15T20:22:28.816Z,14.76
2023-05-15T20:27:30.741Z,14.68
2023-05-15T20:32:32.667Z,14.56
2023-05-15T20:37:34.604Z,14.45
2023-05-15T20:42:36.399Z,14.38
2023-05-15T20:47:38.056Z,14.25
2023-05-15T20:52:39.813Z,14.15
2023-05-15T20:57:43.251Z,14.05
2023-05-15T21:02:46.579Z,13.98
2023-05-15T21:07:48.451Z,13.90
2023-05-15T21:12:50.061Z,13.84
2023-05-15T21:17:51.747Z,13.78
2023-05-15T21:22:53.354Z,13.72
2023-05-15T21:27:55.416Z,13.67
2023-05-15T21:32:57.265Z,13.64
2023-05-15T21:37:58.916Z,13.59
2023-05-15T21:43:00.581Z,13.50
2023-05-15T21:48:03.687Z,13.51
2023-05-15T21:53:05.465Z,13.41
2023-05-15T21:58:07.339Z,13.35
2023-05-15T22:03:09.045Z,13.33
2023-05-15T22:08:11.132Z,13.29
2023-05-15T22:13:13.026Z,13.23
2023-05-15T22:18:14.885Z,13.19
2023-05-15T22:23:16.477Z,13.20
2023-05-15T22:28:18.209Z,13.19
2023-05-15T22:33:24.250Z,13.16
2023-05-15T22:38:26.002Z,13.06
2023-05-15T22:43:27.648Z,13.05
2023-05-15T22:48:29.283Z,12.98
2023-05-15T22:53:31.098Z,12.96
2023-05-15T22:58:34.043Z,12.97
2023-05-15T23:03:36.004Z,12.92
2023-05-15T23:08:37.650Z,12.91
2023-05-15T23:13:39.480Z,12.92
2023-05-15T23:18:41.868Z,12.88
2023-05-15T23:23:44.779Z,12.79
2023-05-15T23:28:46.551Z,12.75
2023-05-15T23:33:48.276Z,12.72
2023-05-15T23:38:50.208Z,12.68
2023-05-15T23:43:52.288Z,12.68
2023-05-15T23:48:54.002Z,12.67
2023-05-15T23:53:55.652Z,12.70
2023-05-15T23:58:58.012Z,12.67
